To NAV CANADA Home Page Login to a new session Search on AWWS site Disclaimer Vers la page française équivalente Tips FAQ What's new on the site To the Forecasts and Observations / NOTAM section To "File a Flight Plan" website Publications and other links Update of the User's profile FIC Telephone Numbers My Weather Data Folder Route Weather Data Regional Weather Data Local Weather Data To the Forecasts and Observations / NOTAM section
Request Generated 10/27/2020 at 09:00:36 UTC . Weather information available at that time is displayed.

METAR/TAF

TORONTO/LESTER B. PEARSON INTL/ON    

METAR CYYZ 270800Z 35009KT 15SM SCT050 BKN110 05/01 A3022 RMK SC3AC4 SLP240=
METAR CYYZ 270700Z 32006KT 15SM FEW050 BKN110 06/03 A3024 RMK SC2AC5 SLP245=
METAR CYYZ 270600Z 31008KT 15SM FEW028 FEW050 BKN110 06/03 A3022 RMK SC1SC1AC6 SC TR SLP241=

TAF CYYZ 270838Z 2709/2812 35008KT P6SM SCT050 BKN110
FM271500 03007KT P6SM BKN030 OVC100
FM271800 25010KT 4SM -SHRA BR SCT020 OVC030
FM272200 25012KT P6SM SCT020 BKN030
FM280300 24008KT P6SM FEW004 SCT020 PROB30 2806/2812 3/4SM BR
RMK NXT FCST BY 271200Z=
Your time UTC time
Weather data provided by Environment Canada and NAV CANADA